sensor_id;sensor_type;location;lat;lon;timestamp;temperature;humidity
51305;HTU21D;37392;50.964;6.952;2024-03-02T00:02:13;7.77;93.58
51305;HTU21D;37392;50.964;6.952;2024-03-02T00:04:39;7.69;93.59
51305;HTU21D;37392;50.964;6.952;2024-03-02T00:07:06;7.71;93.63
51305;HTU21D;37392;50.964;6.952;2024-03-02T00:09:32;7.67;93.89
51305;HTU21D;37392;50.964;6.952;2024-03-02T00:12:00;7.77;93.81
51305;HTU21D;37392;50.964;6.952;2024-03-02T00:14:29;7.70;93.78
51305;HTU21D;37392;50.964;6.952;2024-03-02T00:16:55;7.71;93.90
51305;HTU21D;37392;50.964;6.952;2024-03-02T00:19:21;7.77;93.48
51305;HTU21D;37392;50.964;6.952;2024-03-02T00:21:47;7.77;93.50
51305;HTU21D;37392;50.964;6.952;2024-03-02T00:24:34;7.81;93.54
51305;HTU21D;37392;50.964;6.952;2024-03-02T00:27:01;7.93;93.08
51305;HTU21D;37392;50.964;6.952;2024-03-02T00:29:29;8.02;92.62
51305;HTU21D;37392;50.964;6.952;2024-03-02T00:31:55;8.07;92.10
51305;HTU21D;37392;50.964;6.952;2024-03-02T00:34:21;8.15;91.81
51305;HTU21D;37392;50.964;6.952;2024-03-02T00:36:47;8.17;91.62
51305;HTU21D;37392;50.964;6.952;2024-03-02T00:39:15;8.23;91.24
51305;HTU21D;37392;50.964;6.952;2024-03-02T00:41:42;8.23;91.05
51305;HTU21D;37392;50.964;6.952;2024-03-02T00:44:09;8.29;91.00
51305;HTU21D;37392;50.964;6.952;2024-03-02T00:46:41;8.26;90.97
51305;HTU21D;37392;50.964;6.952;2024-03-02T00:49:24;8.26;91.04
51305;HTU21D;37392;50.964;6.952;2024-03-02T00:51:52;8.34;90.65
51305;HTU21D;37392;50.964;6.952;2024-03-02T00:54:23;8.34;90.61
51305;HTU21D;37392;50.964;6.952;2024-03-02T00:56:51;8.38;90.42
51305;HTU21D;37392;50.964;6.952;2024-03-02T00:59:17;8.38;90.33
51305;HTU21D;37392;50.964;6.952;2024-03-02T01:01:43;8.36;90.29
51305;HTU21D;37392;50.964;6.952;2024-03-02T01:04:09;8.37;90.25
51305;HTU21D;37392;50.964;6.952;2024-03-02T01:06:35;8.31;90.38
51305;HTU21D;37392;50.964;6.952;2024-03-02T01:09:01;8.29;90.50
51305;HTU21D;37392;50.964;6.952;2024-03-02T01:11:27;8.18;90.81
51305;HTU21D;37392;50.964;6.952;2024-03-02T01:13:53;8.06;91.24
51305;HTU21D;37392;50.964;6.952;2024-03-02T01:16:19;8.06;91.43
51305;HTU21D;37392;50.964;6.952;2024-03-02T01:18:44;8.06;91.28
51305;HTU21D;37392;50.964;6.952;2024-03-02T01:21:10;8.03;91.47
51305;HTU21D;37392;50.964;6.952;2024-03-02T01:23:36;7.97;91.65
51305;HTU21D;37392;50.964;6.952;2024-03-02T01:26:01;7.93;91.81
51305;HTU21D;37392;50.964;6.952;2024-03-02T01:28:27;7.93;91.83
51305;HTU21D;37392;50.964;6.952;2024-03-02T01:30:53;7.90;91.83
51305;HTU21D;37392;50.964;6.952;2024-03-02T01:33:19;7.87;91.82
51305;HTU21D;37392;50.964;6.952;2024-03-02T01:35:45;7.88;91.87
51305;HTU21D;37392;50.964;6.952;2024-03-02T01:38:10;7.87;91.87
51305;HTU21D;37392;50.964;6.952;2024-03-02T01:40:37;7.85;91.95
51305;HTU21D;37392;50.964;6.952;2024-03-02T01:43:06;7.88;92.07
51305;HTU21D;37392;50.964;6.952;2024-03-02T01:45:33;7.86;92.15
51305;HTU21D;37392;50.964;6.952;2024-03-02T01:48:00;7.87;92.15
51305;HTU21D;37392;50.964;6.952;2024-03-02T01:50:31;7.94;92.07
51305;HTU21D;37392;50.964;6.952;2024-03-02T01:52:58;8.02;91.72
51305;HTU21D;37392;50.964;6.952;2024-03-02T01:55:24;8.08;91.38
51305;HTU21D;37392;50.964;6.952;2024-03-02T01:57:51;8.06;91.33
51305;HTU21D;37392;50.964;6.952;2024-03-02T02:00:18;8.05;91.24
51305;HTU21D;37392;50.964;6.952;2024-03-02T02:02:45;8.08;91.17
51305;HTU21D;37392;50.964;6.952;2024-03-02T02:05:15;8.13;90.95
51305;HTU21D;37392;50.964;6.952;2024-03-02T02:07:41;8.13;90.83
51305;HTU21D;37392;50.964;6.952;2024-03-02T02:10:07;8.18;90.72
51305;HTU21D;37392;50.964;6.952;2024-03-02T02:12:34;8.21;90.57
51305;HTU21D;37392;50.964;6.952;2024-03-02T02:15:00;8.24;90.27
51305;HTU21D;37392;50.964;6.952;2024-03-02T02:17:26;8.21;90.22
51305;HTU21D;37392;50.964;6.952;2024-03-02T02:19:51;8.23;90.16
51305;HTU21D;37392;50.964;6.952;2024-03-02T02:22:17;8.16;90.32
51305;HTU21D;37392;50.964;6.952;2024-03-02T02:24:43;8.20;90.11
51305;HTU21D;37392;50.964;6.952;2024-03-02T02:27:09;8.18;90.08
51305;HTU21D;37392;50.964;6.952;2024-03-02T02:29:35;8.09;90.35
51305;HTU21D;37392;50.964;6.952;2024-03-02T02:32:01;8.06;90.60
51305;HTU21D;37392;50.964;6.952;2024-03-02T02:34:28;8.05;90.74
51305;HTU21D;37392;50.964;6.952;2024-03-02T02:36:54;8.16;90.44
51305;HTU21D;37392;50.964;6.952;2024-03-02T02:39:21;8.27;89.77
51305;HTU21D;37392;50.964;6.952;2024-03-02T02:41:49;8.29;89.66
51305;HTU21D;37392;50.964;6.952;2024-03-02T02:44:15;8.31;89.36
51305;HTU21D;37392;50.964;6.952;2024-03-02T02:46:41;8.33;89.31
51305;HTU21D;37392;50.964;6.952;2024-03-02T02:49:07;8.35;89.14
51305;HTU21D;37392;50.964;6.952;2024-03-02T02:51:32;8.31;89.08
51305;HTU21D;37392;50.964;6.952;2024-03-02T02:53:58;8.31;89.07
51305;HTU21D;37392;50.964;6.952;2024-03-02T02:56:24;8.31;88.98
51305;HTU21D;37392;50.964;6.952;2024-03-02T02:58:49;8.35;88.91
51305;HTU21D;37392;50.964;6.952;2024-03-02T03:01:16;8.35;89.05
51305;HTU21D;37392;50.964;6.952;2024-03-02T03:03:45;8.35;88.99
51305;HTU21D;37392;50.964;6.952;2024-03-02T03:06:11;8.38;88.82
51305;HTU21D;37392;50.964;6.952;2024-03-02T03:08:36;8.39;88.75
51305;HTU21D;37392;50.964;6.952;2024-03-02T03:11:02;8.38;88.64
51305;HTU21D;37392;50.964;6.952;2024-03-02T03:13:28;8.33;88.73
51305;HTU21D;37392;50.964;6.952;2024-03-02T03:15:53;8.37;88.86
51305;HTU21D;37392;50.964;6.952;2024-03-02T03:18:19;8.36;88.80
51305;HTU21D;37392;50.964;6.952;2024-03-02T03:20:44;8.34;88.92
51305;HTU21D;37392;50.964;6.952;2024-03-02T03:23:10;8.35;88.85
51305;HTU21D;37392;50.964;6.952;2024-03-02T03:25:40;8.33;88.86
51305;HTU21D;37392;50.964;6.952;2024-03-02T03:28:06;8.30;88.93
51305;HTU21D;37392;50.964;6.952;2024-03-02T03:30:32;8.31;88.98
51305;HTU21D;37392;50.964;6.952;2024-03-02T03:32:57;8.22;89.21
51305;HTU21D;37392;50.964;6.952;2024-03-02T03:35:23;8.19;89.45
51305;HTU21D;37392;50.964;6.952;2024-03-02T03:37:48;8.16;89.67
51305;HTU21D;37392;50.964;6.952;2024-03-02T03:40:14;8.14;89.66
51305;HTU21D;37392;50.964;6.952;2024-03-02T03:42:40;8.18;89.63
51305;HTU21D;37392;50.964;6.952;2024-03-02T03:45:06;8.13;89.74
51305;HTU21D;37392;50.964;6.952;2024-03-02T03:47:32;8.16;89.73
51305;HTU21D;37392;50.964;6.952;2024-03-02T03:49:58;8.13;89.76
51305;HTU21D;37392;50.964;6.952;2024-03-02T03:52:24;8.06;89.96
51305;HTU21D;37392;50.964;6.952;2024-03-02T03:54:49;7.93;90.38
51305;HTU21D;37392;50.964;6.952;2024-03-02T03:57:15;7.81;90.99
51305;HTU21D;37392;50.964;6.952;2024-03-02T03:59:41;7.72;91.59
51305;HTU21D;37392;50.964;6.952;2024-03-02T04:02:08;7.67;91.95
51305;HTU21D;37392;50.964;6.952;2024-03-02T04:04:34;7.68;91.98
51305;HTU21D;37392;50.964;6.952;2024-03-02T04:07:00;7.68;92.03
51305;HTU21D;37392;50.964;6.952;2024-03-02T04:09:26;7.58;92.37
51305;HTU21D;37392;50.964;6.952;2024-03-02T04:11:52;7.50;92.75
51305;HTU21D;37392;50.964;6.952;2024-03-02T04:14:18;7.43;93.12
51305;HTU21D;37392;50.964;6.952;2024-03-02T04:16:43;7.33;93.37
51305;HTU21D;37392;50.964;6.952;2024-03-02T04:19:09;7.22;94.12
51305;HTU21D;37392;50.964;6.952;2024-03-02T04:21:34;7.12;94.47
51305;HTU21D;37392;50.964;6.952;2024-03-02T04:24:00;7.02;95.16
51305;HTU21D;37392;50.964;6.952;2024-03-02T04:26:26;7.00;95.33
51305;HTU21D;37392;50.964;6.952;2024-03-02T04:28:52;6.95;95.59
51305;HTU21D;37392;50.964;6.952;2024-03-02T04:31:19;6.97;96.03
51305;HTU21D;37392;50.964;6.952;2024-03-02T04:33:44;7.17;95.16
51305;HTU21D;37392;50.964;6.952;2024-03-02T04:36:10;7.23;94.76
51305;HTU21D;37392;50.964;6.952;2024-03-02T04:38:36;7.27;94.60
51305;HTU21D;37392;50.964;6.952;2024-03-02T04:41:06;7.23;94.67
51305;HTU21D;37392;50.964;6.952;2024-03-02T04:43:32;7.16;94.88
51305;HTU21D;37392;50.964;6.952;2024-03-02T04:45:59;7.08;95.23
51305;HTU21D;37392;50.964;6.952;2024-03-02T04:48:24;7.00;95.49
51305;HTU21D;37392;50.964;6.952;2024-03-02T04:50:50;6.85;96.09
51305;HTU21D;37392;50.964;6.952;2024-03-02T04:53:16;6.81;96.61
51305;HTU21D;37392;50.964;6.952;2024-03-02T04:55:41;6.79;96.84
51305;HTU21D;37392;50.964;6.952;2024-03-02T04:58:07;6.75;97.03
51305;HTU21D;37392;50.964;6.952;2024-03-02T05:00:33;6.75;97.18
51305;HTU21D;37392;50.964;6.952;2024-03-02T05:02:58;6.76;97.33
51305;HTU21D;37392;50.964;6.952;2024-03-02T05:05:24;6.71;97.24
51305;HTU21D;37392;50.964;6.952;2024-03-02T05:07:49;6.71;97.33
51305;HTU21D;37392;50.964;6.952;2024-03-02T05:10:16;6.75;97.51
51305;HTU21D;37392;50.964;6.952;2024-03-02T05:12:41;6.70;97.41
51305;HTU21D;37392;50.964;6.952;2024-03-02T05:15:11;6.64;97.90
51305;HTU21D;37392;50.964;6.952;2024-03-02T05:17:41;6.64;97.90
51305;HTU21D;37392;50.964;6.952;2024-03-02T05:20:11;6.58;98.03
51305;HTU21D;37392;50.964;6.952;2024-03-02T05:22:37;6.58;98.16
51305;HTU21D;37392;50.964;6.952;2024-03-02T05:25:04;6.61;98.07
51305;HTU21D;37392;50.964;6.952;2024-03-02T05:27:30;6.50;98.12
51305;HTU21D;37392;50.964;6.952;2024-03-02T05:29:58;6.50;98.30
51305;HTU21D;37392;50.964;6.952;2024-03-02T05:32:24;6.41;98.48
51305;HTU21D;37392;50.964;6.952;2024-03-02T05:34:49;6.45;98.81
51305;HTU21D;37392;50.964;6.952;2024-03-02T05:37:16;6.38;99.03
51305;HTU21D;37392;50.964;6.952;2024-03-02T05:39:41;6.33;99.09
51305;HTU21D;37392;50.964;6.952;2024-03-02T05:42:08;6.38;98.96
51305;HTU21D;37392;50.964;6.952;2024-03-02T05:44:35;6.51;98.35
51305;HTU21D;37392;50.964;6.952;2024-03-02T05:47:02;6.52;98.24
51305;HTU21D;37392;50.964;6.952;2024-03-02T05:49:28;6.50;98.14
51305;HTU21D;37392;50.964;6.952;2024-03-02T05:51:53;6.38;98.64
51305;HTU21D;37392;50.964;6.952;2024-03-02T05:54:19;6.34;99.01
51305;HTU21D;37392;50.964;6.952;2024-03-02T05:56:44;6.33;99.19
51305;HTU21D;37392;50.964;6.952;2024-03-02T05:59:10;6.35;99.00
51305;HTU21D;37392;50.964;6.952;2024-03-02T06:01:42;6.34;99.16
51305;HTU21D;37392;50.964;6.952;2024-03-02T06:04:09;6.36;99.13
51305;HTU21D;37392;50.964;6.952;2024-03-02T06:06:36;6.49;98.90
51305;HTU21D;37392;50.964;6.952;2024-03-02T06:09:02;6.59;98.29
51305;HTU21D;37392;50.964;6.952;2024-03-02T06:11:38;6.61;97.92
51305;HTU21D;37392;50.964;6.952;2024-03-02T06:14:06;6.66;97.74
51305;HTU21D;37392;50.964;6.952;2024-03-02T06:16:32;6.68;97.62
51305;HTU21D;37392;50.964;6.952;2024-03-02T06:18:58;6.71;97.54
51305;HTU21D;37392;50.964;6.952;2024-03-02T06:21:24;6.72;97.44
51305;HTU21D;37392;50.964;6.952;2024-03-02T06:23:50;6.84;96.97
51305;HTU21D;37392;50.964;6.952;2024-03-02T06:26:16;6.86;96.71
51305;HTU21D;37392;50.964;6.952;2024-03-02T06:28:41;6.91;96.35
51305;HTU21D;37392;50.964;6.952;2024-03-02T06:31:08;6.98;96.23
51305;HTU21D;37392;50.964;6.952;2024-03-02T06:33:34;6.98;96.16
51305;HTU21D;37392;50.964;6.952;2024-03-02T06:36:00;6.96;96.10
51305;HTU21D;37392;50.964;6.952;2024-03-02T06:38:25;7.01;96.03
51305;HTU21D;37392;50.964;6.952;2024-03-02T06:40:51;6.99;96.12
51305;HTU21D;37392;50.964;6.952;2024-03-02T06:43:17;7.01;96.07
51305;HTU21D;37392;50.964;6.952;2024-03-02T06:45:42;7.04;96.04
51305;HTU21D;37392;50.964;6.952;2024-03-02T06:48:08;7.04;95.99
51305;HTU21D;37392;50.964;6.952;2024-03-02T06:50:33;7.07;95.74
51305;HTU21D;37392;50.964;6.952;2024-03-02T06:52:59;7.08;95.83
51305;HTU21D;37392;50.964;6.952;2024-03-02T06:55:25;7.12;95.72
51305;HTU21D;37392;50.964;6.952;2024-03-02T06:57:51;7.20;95.62
51305;HTU21D;37392;50.964;6.952;2024-03-02T07:00:17;7.55;94.62
51305;HTU21D;37392;50.964;6.952;2024-03-02T07:02:45;7.68;93.75
51305;HTU21D;37392;50.964;6.952;2024-03-02T07:05:11;7.78;93.17
51305;HTU21D;37392;50.964;6.952;2024-03-02T07:07:37;7.84;92.71
51305;HTU21D;37392;50.964;6.952;2024-03-02T07:10:04;7.87;92.62
51305;HTU21D;37392;50.964;6.952;2024-03-02T07:12:30;7.94;92.50
51305;HTU21D;37392;50.964;6.952;2024-03-02T07:14:57;8.28;92.18
51305;HTU21D;37392;50.964;6.952;2024-03-02T07:17:29;9.07;89.91
51305;HTU21D;37392;50.964;6.952;2024-03-02T07:19:55;9.92;87.09
51305;HTU21D;37392;50.964;6.952;2024-03-02T07:22:21;10.57;83.96
51305;HTU21D;37392;50.964;6.952;2024-03-02T07:24:48;11.22;81.07
51305;HTU21D;37392;50.964;6.952;2024-03-02T07:27:14;11.70;78.72
51305;HTU21D;37392;50.964;6.952;2024-03-02T07:29:41;12.00;77.40
51305;HTU21D;37392;50.964;6.952;2024-03-02T07:32:08;12.33;75.76
51305;HTU21D;37392;50.964;6.952;2024-03-02T07:34:34;12.60;74.67
51305;HTU21D;37392;50.964;6.952;2024-03-02T07:37:00;12.70;73.77
51305;HTU21D;37392;50.964;6.952;2024-03-02T07:39:26;12.81;73.90
51305;HTU21D;37392;50.964;6.952;2024-03-02T07:41:52;12.95;72.76
51305;HTU21D;37392;50.964;6.952;2024-03-02T07:44:18;13.02;72.11
51305;HTU21D;37392;50.964;6.952;2024-03-02T07:46:45;12.69;72.26
51305;HTU21D;37392;50.964;6.952;2024-03-02T07:49:12;12.10;74.21
51305;HTU21D;37392;50.964;6.952;2024-03-02T07:51:41;11.89;75.33
51305;HTU21D;37392;50.964;6.952;2024-03-02T07:54:07;12.21;75.33
51305;HTU21D;37392;50.964;6.952;2024-03-02T07:56:32;12.56;73.93
51305;HTU21D;37392;50.964;6.952;2024-03-02T07:58:58;12.34;74.07
51305;HTU21D;37392;50.964;6.952;2024-03-02T08:01:30;12.26;74.29
51305;HTU21D;37392;50.964;6.952;2024-03-02T08:04:00;12.03;75.17
51305;HTU21D;37392;50.964;6.952;2024-03-02T08:06:27;12.57;74.32
51305;HTU21D;37392;50.964;6.952;2024-03-02T08:08:57;13.35;72.29
51305;HTU21D;37392;50.964;6.952;2024-03-02T08:11:23;13.56;70.39
51305;HTU21D;37392;50.964;6.952;2024-03-02T08:13:51;13.63;70.36
51305;HTU21D;37392;50.964;6.952;2024-03-02T08:16:19;14.07;69.80
51305;HTU21D;37392;50.964;6.952;2024-03-02T08:18:45;14.44;68.28
51305;HTU21D;37392;50.964;6.952;2024-03-02T08:21:12;15.17;67.14
51305;HTU21D;37392;50.964;6.952;2024-03-02T08:23:38;15.54;65.47
51305;HTU21D;37392;50.964;6.952;2024-03-02T08:26:06;15.54;64.68
51305;HTU21D;37392;50.964;6.952;2024-03-02T08:28:31;15.80;64.21
51305;HTU21D;37392;50.964;6.952;2024-03-02T08:30:58;15.78;63.55
51305;HTU21D;37392;50.964;6.952;2024-03-02T08:33:26;15.88;63.90
51305;HTU21D;37392;50.964;6.952;2024-03-02T08:35:51;16.27;63.02
51305;HTU21D;37392;50.964;6.952;2024-03-02T08:38:17;16.60;62.08
51305;HTU21D;37392;50.964;6.952;2024-03-02T08:40:44;16.94;60.95
51305;HTU21D;37392;50.964;6.952;2024-03-02T08:43:10;17.07;60.54
51305;HTU21D;37392;50.964;6.952;2024-03-02T08:45:36;17.17;59.59
51305;HTU21D;37392;50.964;6.952;2024-03-02T08:48:03;17.11;59.57
51305;HTU21D;37392;50.964;6.952;2024-03-02T08:50:29;16.77;59.96
51305;HTU21D;37392;50.964;6.952;2024-03-02T08:52:54;16.24;61.18
51305;HTU21D;37392;50.964;6.952;2024-03-02T08:55:23;16.34;61.76
51305;HTU21D;37392;50.964;6.952;2024-03-02T08:57:49;16.31;61.30
51305;HTU21D;37392;50.964;6.952;2024-03-02T09:00:15;16.51;61.25
51305;HTU21D;37392;50.964;6.952;2024-03-02T09:02:43;16.69;61.05
51305;HTU21D;37392;50.964;6.952;2024-03-02T09:05:09;17.11;60.15
51305;HTU21D;37392;50.964;6.952;2024-03-02T09:07:38;17.13;59.86
51305;HTU21D;37392;50.964;6.952;2024-03-02T09:10:07;17.56;58.77
51305;HTU21D;37392;50.964;6.952;2024-03-02T09:12:34;17.69;58.12
51305;HTU21D;37392;50.964;6.952;2024-03-02T09:15:04;17.84;57.87
51305;HTU21D;37392;50.964;6.952;2024-03-02T09:17:31;18.17;57.26
51305;HTU21D;37392;50.964;6.952;2024-03-02T09:19:57;18.05;56.85
51305;HTU21D;37392;50.964;6.952;2024-03-02T09:22:22;18.14;56.86
51305;HTU21D;37392;50.964;6.952;2024-03-02T09:24:48;18.22;56.42
51305;HTU21D;37392;50.964;6.952;2024-03-02T09:27:14;18.02;56.80
51305;HTU21D;37392;50.964;6.952;2024-03-02T09:29:39;17.98;56.86
51305;HTU21D;37392;50.964;6.952;2024-03-02T09:34:33;18.35;56.26
51305;HTU21D;37392;50.964;6.952;2024-03-02T09:36:59;18.64;55.66
51305;HTU21D;37392;50.964;6.952;2024-03-02T09:39:25;19.40;54.57
51305;HTU21D;37392;50.964;6.952;2024-03-02T09:41:51;19.73;53.30
51305;HTU21D;37392;50.964;6.952;2024-03-02T09:44:27;19.39;52.95
51305;HTU21D;37392;50.964;6.952;2024-03-02T09:46:52;18.47;54.04
51305;HTU21D;37392;50.964;6.952;2024-03-02T09:49:18;17.66;56.92
51305;HTU21D;37392;50.964;6.952;2024-03-02T09:51:48;16.80;58.31
51305;HTU21D;37392;50.964;6.952;2024-03-02T09:54:15;16.22;60.28
51305;HTU21D;37392;50.964;6.952;2024-03-02T09:56:41;16.22;60.76
51305;HTU21D;37392;50.964;6.952;2024-03-02T09:59:07;16.67;60.54
51305;HTU21D;37392;50.964;6.952;2024-03-02T10:01:32;16.92;59.31
51305;HTU21D;37392;50.964;6.952;2024-03-02T10:04:01;17.34;58.52
51305;HTU21D;37392;50.964;6.952;2024-03-02T10:06:30;17.44;57.51
51305;HTU21D;37392;50.964;6.952;2024-03-02T10:08:56;17.20;57.84
51305;HTU21D;37392;50.964;6.952;2024-03-02T10:14:14;17.85;57.13
51305;HTU21D;37392;50.964;6.952;2024-03-02T10:16:40;18.38;55.83
51305;HTU21D;37392;50.964;6.952;2024-03-02T10:21:52;18.64;55.15
51305;HTU21D;37392;50.964;6.952;2024-03-02T10:24:18;18.82;54.71
51305;HTU21D;37392;50.964;6.952;2024-03-02T10:26:45;19.00;53.97
51305;HTU21D;37392;50.964;6.952;2024-03-02T10:29:11;19.02;53.64
51305;HTU21D;37392;50.964;6.952;2024-03-02T10:31:41;19.20;53.79
51305;HTU21D;37392;50.964;6.952;2024-03-02T10:34:12;19.66;52.93
51305;HTU21D;37392;50.964;6.952;2024-03-02T10:36:41;20.16;51.60
51305;HTU21D;37392;50.964;6.952;2024-03-02T10:39:08;19.51;51.53
51305;HTU21D;37392;50.964;6.952;2024-03-02T10:41:38;19.52;51.72
51305;HTU21D;37392;50.964;6.952;2024-03-02T10:44:05;19.41;51.81
51305;HTU21D;37392;50.964;6.952;2024-03-02T10:46:36;19.27;52.43
51305;HTU21D;37392;50.964;6.952;2024-03-02T10:49:03;19.22;52.43
51305;HTU21D;37392;50.964;6.952;2024-03-02T10:51:32;19.33;52.31
51305;HTU21D;37392;50.964;6.952;2024-03-02T10:53:59;19.00;52.94
51305;HTU21D;37392;50.964;6.952;2024-03-02T10:57:01;18.97;53.09
51305;HTU21D;37392;50.964;6.952;2024-03-02T10:59:34;19.08;52.76
51305;HTU21D;37392;50.964;6.952;2024-03-02T11:02:02;19.07;52.90
51305;HTU21D;37392;50.964;6.952;2024-03-02T11:04:30;18.61;53.39
51305;HTU21D;37392;50.964;6.952;2024-03-02T11:07:05;17.46;55.82
51305;HTU21D;37392;50.964;6.952;2024-03-02T11:09:40;16.76;57.84
51305;HTU21D;37392;50.964;6.952;2024-03-02T11:12:12;16.34;59.31
51305;HTU21D;37392;50.964;6.952;2024-03-02T11:14:55;15.89;60.33
51305;HTU21D;37392;50.964;6.952;2024-03-02T11:17:21;15.56;61.59
51305;HTU21D;37392;50.964;6.952;2024-03-02T11:19:49;15.47;62.23
51305;HTU21D;37392;50.964;6.952;2024-03-02T11:22:15;15.43;62.69
51305;HTU21D;37392;50.964;6.952;2024-03-02T11:24:52;15.45;62.65
51305;HTU21D;37392;50.964;6.952;2024-03-02T11:33:04;15.08;63.74
51305;HTU21D;37392;50.964;6.952;2024-03-02T11:35:36;14.85;64.18
51305;HTU21D;37392;50.964;6.952;2024-03-02T11:38:14;14.87;64.59
51305;HTU21D;37392;50.964;6.952;2024-03-02T11:40:40;14.82;64.78
51305;HTU21D;37392;50.964;6.952;2024-03-02T11:43:07;14.77;65.03
51305;HTU21D;37392;50.964;6.952;2024-03-02T11:45:36;14.69;65.17
51305;HTU21D;37392;50.964;6.952;2024-03-02T11:48:05;14.62;65.20
51305;HTU21D;37392;50.964;6.952;2024-03-02T11:50:49;14.58;65.53
51305;HTU21D;37392;50.964;6.952;2024-03-02T11:53:16;14.64;65.69
51305;HTU21D;37392;50.964;6.952;2024-03-02T11:55:42;14.55;65.61
51305;HTU21D;37392;50.964;6.952;2024-03-02T11:58:12;14.56;66.00
51305;HTU21D;37392;50.964;6.952;2024-03-02T12:00:38;14.48;66.26
51305;HTU21D;37392;50.964;6.952;2024-03-02T12:03:05;14.49;66.39
51305;HTU21D;37392;50.964;6.952;2024-03-02T12:05:32;14.62;66.40
51305;HTU21D;37392;50.964;6.952;2024-03-02T12:08:05;14.69;66.43
51305;HTU21D;37392;50.964;6.952;2024-03-02T12:10:33;14.91;66.02
51305;HTU21D;37392;50.964;6.952;2024-03-02T12:13:06;14.87;66.04
51305;HTU21D;37392;50.964;6.952;2024-03-02T12:15:34;15.10;65.78
51305;HTU21D;37392;50.964;6.952;2024-03-02T12:18:02;15.23;65.48
51305;HTU21D;37392;50.964;6.952;2024-03-02T12:20:29;15.24;65.02
51305;HTU21D;37392;50.964;6.952;2024-03-02T12:22:57;15.08;64.83
51305;HTU21D;37392;50.964;6.952;2024-03-02T12:25:24;15.29;64.89
51305;HTU21D;37392;50.964;6.952;2024-03-02T12:27:53;15.36;64.78
51305;HTU21D;37392;50.964;6.952;2024-03-02T12:30:20;15.46;64.46
51305;HTU21D;37392;50.964;6.952;2024-03-02T12:32:47;15.47;64.19
51305;HTU21D;37392;50.964;6.952;2024-03-02T12:35:14;15.32;64.37
51305;HTU21D;37392;50.964;6.952;2024-03-02T12:37:48;15.27;64.53
51305;HTU21D;37392;50.964;6.952;2024-03-02T12:40:16;15.36;64.05
51305;HTU21D;37392;50.964;6.952;2024-03-02T12:42:44;15.28;64.22
51305;HTU21D;37392;50.964;6.952;2024-03-02T12:45:10;15.31;64.37
51305;HTU21D;37392;50.964;6.952;2024-03-02T12:47:36;15.43;64.46
51305;HTU21D;37392;50.964;6.952;2024-03-02T12:50:03;15.44;64.34
51305;HTU21D;37392;50.964;6.952;2024-03-02T12:52:30;15.32;64.39
51305;HTU21D;37392;50.964;6.952;2024-03-02T12:54:59;15.46;64.52
51305;HTU21D;37392;50.964;6.952;2024-03-02T12:57:30;15.28;64.50
51305;HTU21D;37392;50.964;6.952;2024-03-02T13:00:03;15.39;64.62
51305;HTU21D;37392;50.964;6.952;2024-03-02T13:02:40;15.55;64.45
51305;HTU21D;37392;50.964;6.952;2024-03-02T13:05:07;15.63;64.06
51305;HTU21D;37392;50.964;6.952;2024-03-02T13:07:39;15.59;63.97
51305;HTU21D;37392;50.964;6.952;2024-03-02T13:10:06;15.44;63.76
51305;HTU21D;37392;50.964;6.952;2024-03-02T13:12:36;15.44;64.29
51305;HTU21D;37392;50.964;6.952;2024-03-02T13:15:03;15.54;64.58
51305;HTU21D;37392;50.964;6.952;2024-03-02T13:17:29;15.67;64.30
51305;HTU21D;37392;50.964;6.952;2024-03-02T13:19:56;15.62;64.41
51305;HTU21D;37392;50.964;6.952;2024-03-02T13:22:23;15.65;64.33
51305;HTU21D;37392;50.964;6.952;2024-03-02T13:24:50;15.74;64.17
51305;HTU21D;37392;50.964;6.952;2024-03-02T13:27:16;15.75;63.85
51305;HTU21D;37392;50.964;6.952;2024-03-02T13:29:45;15.72;63.83
51305;HTU21D;37392;50.964;6.952;2024-03-02T13:32:13;15.82;64.18
51305;HTU21D;37392;50.964;6.952;2024-03-02T13:34:42;15.81;63.56
51305;HTU21D;37392;50.964;6.952;2024-03-02T13:37:08;15.78;64.08
51305;HTU21D;37392;50.964;6.952;2024-03-02T13:39:34;15.78;64.17
51305;HTU21D;37392;50.964;6.952;2024-03-02T13:42:07;15.49;64.66
51305;HTU21D;37392;50.964;6.952;2024-03-02T13:44:33;15.43;64.84
51305;HTU21D;37392;50.964;6.952;2024-03-02T13:47:02;15.29;65.24
51305;HTU21D;37392;50.964;6.952;2024-03-02T13:49:29;15.30;65.55
51305;HTU21D;37392;50.964;6.952;2024-03-02T13:52:08;15.46;65.48
51305;HTU21D;37392;50.964;6.952;2024-03-02T13:54:43;15.58;64.88
51305;HTU21D;37392;50.964;6.952;2024-03-02T13:57:11;15.65;64.63
51305;HTU21D;37392;50.964;6.952;2024-03-02T13:59:37;15.69;64.37
51305;HTU21D;37392;50.964;6.952;2024-03-02T14:02:04;15.74;64.45
51305;HTU21D;37392;50.964;6.952;2024-03-02T14:04:34;15.69;64.33
51305;HTU21D;37392;50.964;6.952;2024-03-02T14:07:00;15.92;63.87
51305;HTU21D;37392;50.964;6.952;2024-03-02T14:09:26;15.77;63.29
51305;HTU21D;37392;50.964;6.952;2024-03-02T14:11:53;15.78;62.60
51305;HTU21D;37392;50.964;6.952;2024-03-02T14:14:19;15.73;62.77
51305;HTU21D;37392;50.964;6.952;2024-03-02T14:16:45;15.83;62.95
51305;HTU21D;37392;50.964;6.952;2024-03-02T14:19:11;15.66;62.73
51305;HTU21D;37392;50.964;6.952;2024-03-02T14:21:37;15.62;62.70
51305;HTU21D;37392;50.964;6.952;2024-03-02T14:24:04;15.62;62.70
51305;HTU21D;37392;50.964;6.952;2024-03-02T14:26:30;15.66;62.93
51305;HTU21D;37392;50.964;6.952;2024-03-02T14:28:55;15.85;62.82
51305;HTU21D;37392;50.964;6.952;2024-03-02T14:31:21;16.03;62.78
51305;HTU21D;37392;50.964;6.952;2024-03-02T14:33:47;16.04;62.73
51305;HTU21D;37392;50.964;6.952;2024-03-02T14:36:13;15.78;63.27
51305;HTU21D;37392;50.964;6.952;2024-03-02T14:38:39;15.60;63.88
51305;HTU21D;37392;50.964;6.952;2024-03-02T14:41:04;15.52;64.18
51305;HTU21D;37392;50.964;6.952;2024-03-02T14:43:30;15.48;64.03
51305;HTU21D;37392;50.964;6.952;2024-03-02T14:45:56;15.53;64.18
51305;HTU21D;37392;50.964;6.952;2024-03-02T14:48:22;15.36;64.66
51305;HTU21D;37392;50.964;6.952;2024-03-02T14:50:48;15.36;64.99
51305;HTU21D;37392;50.964;6.952;2024-03-02T14:53:14;15.26;64.95
51305;HTU21D;37392;50.964;6.952;2024-03-02T14:55:39;15.23;65.04
51305;HTU21D;37392;50.964;6.952;2024-03-02T14:58:05;15.16;64.92
51305;HTU21D;37392;50.964;6.952;2024-03-02T15:00:30;15.13;64.97
51305;HTU21D;37392;50.964;6.952;2024-03-02T15:02:56;15.10;65.06
51305;HTU21D;37392;50.964;6.952;2024-03-02T15:05:22;14.96;65.14
51305;HTU21D;37392;50.964;6.952;2024-03-02T15:07:47;14.93;65.26
51305;HTU21D;37392;50.964;6.952;2024-03-02T15:10:13;14.84;65.44
51305;HTU21D;37392;50.964;6.952;2024-03-02T15:12:39;14.77;65.59
51305;HTU21D;37392;50.964;6.952;2024-03-02T15:15:04;14.74;65.77
51305;HTU21D;37392;50.964;6.952;2024-03-02T15:17:30;14.73;65.50
51305;HTU21D;37392;50.964;6.952;2024-03-02T15:19:56;14.74;65.72
51305;HTU21D;37392;50.964;6.952;2024-03-02T15:22:21;14.73;65.61
51305;HTU21D;37392;50.964;6.952;2024-03-02T15:24:47;14.68;65.64
51305;HTU21D;37392;50.964;6.952;2024-03-02T15:27:12;14.65;65.59
51305;HTU21D;37392;50.964;6.952;2024-03-02T15:29:38;14.63;65.78
51305;HTU21D;37392;50.964;6.952;2024-03-02T15:32:05;14.58;65.67
51305;HTU21D;37392;50.964;6.952;2024-03-02T15:34:32;14.57;65.38
51305;HTU21D;37392;50.964;6.952;2024-03-02T15:36:58;14.68;65.42